Startpagina
METAR-TAF:

METAR-TAF

Vliegvelden :

Funchal, Madeira, Portugal

Aeroporto da Madeira

breedte: 32-41-52N, lengte: 016-46-28W, hoogte: 59 m

Actueel weer

Dit bericht is 17 minuten geleden gemaakt, om 12:00 UTC
Wind 13 kt uit het noordoosten
Temperatuur 20°C
Vochtigheid 60%
Druk 1020 hPa
Zicht 10 km of meer
Weinig wolken op 1500 ft
Verspreide wolken op 3000 ft

METAR: LPMA 191200Z 04013KT 9999 FEW015 SCT030 20/12 Q1020

Tijdstip: 12:17 (12:17 UTC)

Verwachting

Dit bericht is 1 uur en het 17 minuten geleden gemaakt, om 11:00 UTC
Verwachting geldig van 19 om 12 UTC tot 20 om 12 UTC
Wind 10 kt uit het noordnoordoosten
Zicht 10 km of meer
Verspreide wolken op 1500 ft
Wijzigt naar
van 20 om 02 UTC tot 20 om 05 UTC
Wind 5 kt uit variabele richting
Tijdelijke
van 20 om 09 UTC tot 20 om 12 UTC
Wind 8 kt uit het zuidzuidoosten

TAF: LPMA 191100Z 1912/2012 02010KT 9999 SCT015 BECMG 2002/2005 VRB05KT TEMPO 2009/2012 16008KT

Waarnemingen en weersverwachtingen van meer dan 4000 vliegvelden (METAR en TAF).

De beschikbare stations zijn de gele en rode punten op de kaart.

Ga met uw muis naar het station om de naam te zien.

Klik dan om waarnemingen en weersverwachtingen te zien.

kaart wijzigen: klik op de groene knoppen met een zwart kruis om in te zoomen, op de groene knop met een streepje om uit te zoomen of op de groene pijlen voor aangrenzende kaarten.


METAR-TAF: